Prudentia — PB4900 — position and weather

sailwx.info

Track history (hours):
 
Tides and Currents Weather Stations Pressure Air Temp Water Temp Dewpoint Dewpoint Depression Visibility Wind Speed Wind Dir Waves Ship Positions

Prudentia

Last reported at 2016-Jul-29 08:25 UTC. Time now 2016-Jul-29 17:55 UTC.
Position N 51°51' E 005°51'.

Length 70 m; draft 1.8 m.

Type: Ship. MMSI: 244660779.

Date/timePositionNaut miles runAvg speedWind from/ knotsBaromVisibWave heightAir tempDewpointWater temp
2016-Jul-29 08:25N 51°51' E 005°51'0 0.0
2016-Jul-29 07:16N 51°51' E 005°51'0 0.0
2016-Jul-29 05:30N 51°51' E 005°51'0 0.0
2016-Jul-29 04:33N 51°51' E 005°51'0 0.0
2016-Jul-29 01:22N 51°51' E 005°51'0 0.0
2016-Jul-29 00:33N 51°51' E 005°51'0 0.0
2016-Jul-28 18:27N 51°51' E 005°51'0 0.0
2016-Jul-28 17:19N 51°51' E 005°51'0 0.0
2016-Jul-28 14:17N 51°51' E 005°51'0 0.0
2016-Jul-28 13:32N 51°51' E 005°51'0 0.0
2016-Jul-28 12:28N 51°51' E 005°51'0 0.0
2016-Jul-28 08:33N 51°51' E 005°51'6 0.2
2016-Jul-27 06:17N 51°46' E 005°51'4 5.3
2016-Jul-27 05:29N 51°46' E 005°44'10 5.2
2016-Jul-27 03:30N 51°49' E 005°28'0 0.3
2016-Jul-27 02:31N 51°49' E 005°28'0 0.0
2016-Jul-27 01:31N 51°49' E 005°28'0 0.0
2016-Jul-26 23:28N 51°49' E 005°28'0 0.0
2016-Jul-26 21:28N 51°49' E 005°28'0 0.0
2016-Jul-26 20:31N 51°49' E 005°28'0 0.2
2016-Jul-26 19:15N 51°49' E 005°27'3 4.9
2016-Jul-26 18:33N 51°47' E 005°22'6 5.8
2016-Jul-26 17:29N 51°45' E 005°13'13 6.9
2016-Jul-26 15:33N 51°43' E 004°51'3 2.9
2016-Jul-26 14:33N 51°40' E 004°51'0 0.0
2016-Jul-26 13:34N 51°40' E 004°51'0 0.0
2016-Jul-26 12:33N 51°40' E 004°51'0 0.0
2016-Jul-26 11:33N 51°40' E 004°51'0 0.0
2016-Jul-26 10:33N 51°40' E 004°51'0 0.0
2016-Jul-25 08:04N 51°40' E 004°51'2 4.8
2016-Jul-25 07:33N 51°42' E 004°50'5 5.5
2016-Jul-25 06:33N 51°44' E 004°41'7 6.8
2016-Jul-25 05:33N 51°48' E 004°50'6 5.6
2016-Jul-25 04:33N 51°50' E 004°59'2 2.3
2016-Jul-25 03:33N 51°52' E 004°60'0 0.0
2016-Jul-25 02:33N 51°52' E 004°60'0 0.0
2016-Jul-25 01:33N 51°52' E 004°60'0 0.0
2016-Jul-25 00:33N 51°52' E 004°60'0 0.0
2016-Jul-24 23:32N 51°52' E 004°60'0 0.0
2016-Jul-24 22:30N 51°52' E 004°60'0 0.0
2016-Jul-24 21:32N 51°52' E 004°60'0 0.0
2016-Jul-24 20:33N 51°52' E 004°60'0 0.0
2016-Jul-24 19:29N 51°52' E 004°60'0 0.0
2016-Jul-24 18:22N 51°52' E 004°60'0 0.0
2016-Jul-24 17:23N 51°52' E 004°60'9 3.3
2016-Jul-24 14:33N 52°01' E 005°07'5 4.8
2016-Jul-24 13:33N 52°06' E 005°05'7 6.5
2016-Jul-24 12:33N 52°11' E 004°60'7 7.2
2016-Jul-24 11:33N 52°18' E 005°01'6 6.1
2016-Jul-24 10:33N 52°23' E 004°54'5 5.2
2016-Jul-24 09:33N 52°25' E 004°46'0 0.0
2016-Jul-24 08:33N 52°25' E 004°46'0 0.0
2016-Jul-24 07:33N 52°25' E 004°46'0 0.0
2016-Jul-24 06:33N 52°25' E 004°46'0 0.0
2016-Jul-24 05:33N 52°25' E 004°46'0 0.0
2016-Jul-24 04:33N 52°25' E 004°46'0 0.0
2016-Jul-24 03:34N 52°25' E 004°46'0 0.0
2016-Jul-24 02:33N 52°25' E 004°46'0 0.0
2016-Jul-24 01:33N 52°25' E 004°46'0 0.0
2016-Jul-24 00:33N 52°25' E 004°46'0 0.0
2016-Jul-23 23:34N 52°25' E 004°46'0 0.0
2016-Jul-23 22:33N 52°25' E 004°46'0 0.0
2016-Jul-23 21:33N 52°25' E 004°46'0 0.0
2016-Jul-23 20:33N 52°25' E 004°46'2 2.5
2016-Jul-23 19:34N 52°25' E 004°50'7 6.6
2016-Jul-23 18:33N 52°21' E 004°59'8 7.5
2016-Jul-23 17:33N 52°14' E 005°00'7 7.2
2016-Jul-23 16:33N 52°07' E 005°05'8 7.5
2016-Jul-23 15:33N 52°00' E 005°11'6 6.0
2016-Jul-23 14:33N 51°58' E 005°20'14 7.0
2016-Jul-23 12:32N 51°54' E 005°42'6 6.5
2016-Jul-23 11:33N 51°51' E 005°51'0 0.0
2016-Jul-23 10:31N 51°51' E 005°51'0 0.0
2016-Jul-23 09:33N 51°51' E 005°51'0 0.0
2016-Jul-23 08:33N 51°51' E 005°51'0 0.0
2016-Jul-23 07:33N 51°51' E 005°51'0 0.0
2016-Jul-23 06:33N 51°51' E 005°51'0 0.0
2016-Jul-23 04:26N 51°51' E 005°51'0 0.0
2016-Jul-23 03:33N 51°51' E 005°51'0 0.0
2016-Jul-23 02:33N 51°51' E 005°51'0 0.0
2016-Jul-23 01:33N 51°51' E 005°51'0 0.0
2016-Jul-22 23:05N 51°51' E 005°51'0 0.0
2016-Jul-22 22:33N 51°51' E 005°51'0 0.0
2016-Jul-22 21:31N 51°51' E 005°51'0 0.0
2016-Jul-22 20:32N 51°51' E 005°51'0 0.0
2016-Jul-22 19:30N 51°51' E 005°51'0 0.0
2016-Jul-22 18:31N 51°51' E 005°51'0 0.0
2016-Jul-22 17:31N 51°51' E 005°51'0 0.0
2016-Jul-22 16:33N 51°51' E 005°51'0 0.0
2016-Jul-22 15:33N 51°51' E 005°51'0 0.0
2016-Jul-22 14:33N 51°51' E 005°51'0 0.0
2016-Jul-22 13:33N 51°51' E 005°51'0 0.0
2016-Jul-22 12:33N 51°51' E 005°51'0 0.0
2016-Jul-22 11:33N 51°51' E 005°51'0 0.0
2016-Jul-22 10:33N 51°51' E 005°51'0 0.0
2016-Jul-22 09:29N 51°51' E 005°51'0 0.0
2016-Jul-22 08:33N 51°51' E 005°51'0 0.0
2016-Jul-22 07:33N 51°51' E 005°51'0 0.0
2016-Jul-22 04:33N 51°51' E 005°51'0 0.0
2016-Jul-22 03:33N 51°51' E 005°51'0 0.0
2016-Jul-22 02:33N 51°51' E 005°51'0 0.0
2016-Jul-22 01:25N 51°51' E 005°51'0 0.0
2016-Jul-22 00:32N 51°51' E 005°51'0 0.0
2016-Jul-21 23:33N 51°51' E 005°51'0 0.0
2016-Jul-21 21:16N 51°51' E 005°51'0 0.0
2016-Jul-21 20:29N 51°51' E 005°51'0 0.0
2016-Jul-21 19:30N 51°51' E 005°51'0 0.0
2016-Jul-21 18:33N 51°51' E 005°51'0 0.0
2016-Jul-21 17:31N 51°51' E 005°51'0 0.0
2016-Jul-21 16:31N 51°51' E 005°51'0 0.0
2016-Jul-21 15:31N 51°51' E 005°51'0 0.0
2016-Jul-21 14:29N 51°51' E 005°51'0 0.0
2016-Jul-21 13:27N 51°51' E 005°51'0 0.0
2016-Jul-21 12:28N 51°51' E 005°51'0 0.0
2016-Jul-21 10:33N 51°51' E 005°51'0 0.0
2016-Jul-21 09:33N 51°51' E 005°51'0 0.0
2016-Jul-21 08:33N 51°51' E 005°51'0 0.0
2016-Jul-21 07:33N 51°51' E 005°51'0 0.0
2016-Jul-21 06:32N 51°51' E 005°51'0 0.0
2016-Jul-21 05:30N 51°51' E 005°51'0 0.0
2016-Jul-21 04:29N 51°51' E 005°51'0 0.0
2016-Jul-21 03:33N 51°51' E 005°51'0 0.0
2016-Jul-21 02:33N 51°51' E 005°51'0 0.0
2016-Jul-21 01:33N 51°51' E 005°51'0 0.0
2016-Jul-21 00:32N 51°51' E 005°51'0 0.0
2016-Jul-20 23:22N 51°51' E 005°51'0 0.0
2016-Jul-20 22:33N 51°51' E 005°51'0 0.0
2016-Jul-20 21:33N 51°51' E 005°51'0 0.0
2016-Jul-20 20:33N 51°51' E 005°51'0 0.0
2016-Jul-20 19:33N 51°51' E 005°51'0 0.0
2016-Jul-20 18:33N 51°51' E 005°51'0 0.0
2016-Jul-20 17:30N 51°51' E 005°51'0 0.0
2016-Jul-20 16:33N 51°51' E 005°51'0 0.0
2016-Jul-20 07:19N 51°51' E 005°51'0 0.0
2016-Jul-20 06:33N 51°51' E 005°51'0 0.0
2016-Jul-20 05:28N 51°51' E 005°51'0 0.0
2016-Jul-20 04:28N 51°51' E 005°51'0 0.0
2016-Jul-20 03:31N 51°51' E 005°51'0 0.0
2016-Jul-20 02:26N 51°51' E 005°51'0 0.0
2016-Jul-20 01:31N 51°51' E 005°51'0 0.0
2016-Jul-20 00:33N 51°51' E 005°51'0 0.0
2016-Jul-19 18:25N 51°51' E 005°51'  
Track history (hours):
 
Tides and Currents Weather Stations Pressure Air Temp Water Temp Dewpoint Dewpoint Depression Visibility Wind Speed Wind Dir Waves Ship Positions

Prudentia

Last reported at 2016-Jul-29 08:25 UTC. Time now 2016-Jul-29 17:55 UTC.
Position N 51°51' E 005°51'.

Length 70 m; draft 1.8 m.

Type: Ship. MMSI: 244660779.

Date/timePositionNaut miles runAvg speedWind from/ knotsBaromVisibWave heightAir tempDewpointWater temp
2016-Jul-29 08:25N 51°51' E 005°51'0 0.0
2016-Jul-29 07:16N 51°51' E 005°51'0 0.0
2016-Jul-29 05:30N 51°51' E 005°51'0 0.0
2016-Jul-29 04:33N 51°51' E 005°51'0 0.0
2016-Jul-29 01:22N 51°51' E 005°51'0 0.0
2016-Jul-29 00:33N 51°51' E 005°51'0 0.0
2016-Jul-28 18:27N 51°51' E 005°51'0 0.0
2016-Jul-28 17:19N 51°51' E 005°51'0 0.0
2016-Jul-28 14:17N 51°51' E 005°51'0 0.0
2016-Jul-28 13:32N 51°51' E 005°51'0 0.0
2016-Jul-28 12:28N 51°51' E 005°51'0 0.0
2016-Jul-28 08:33N 51°51' E 005°51'6 0.2
2016-Jul-27 06:17N 51°46' E 005°51'4 5.3
2016-Jul-27 05:29N 51°46' E 005°44'10 5.2
2016-Jul-27 03:30N 51°49' E 005°28'0 0.3
2016-Jul-27 02:31N 51°49' E 005°28'0 0.0
2016-Jul-27 01:31N 51°49' E 005°28'0 0.0
2016-Jul-26 23:28N 51°49' E 005°28'0 0.0
2016-Jul-26 21:28N 51°49' E 005°28'0 0.0
2016-Jul-26 20:31N 51°49' E 005°28'0 0.2
2016-Jul-26 19:15N 51°49' E 005°27'3 4.9
2016-Jul-26 18:33N 51°47' E 005°22'6 5.8
2016-Jul-26 17:29N 51°45' E 005°13'13 6.9
2016-Jul-26 15:33N 51°43' E 004°51'3 2.9
2016-Jul-26 14:33N 51°40' E 004°51'0 0.0
2016-Jul-26 13:34N 51°40' E 004°51'0 0.0
2016-Jul-26 12:33N 51°40' E 004°51'0 0.0
2016-Jul-26 11:33N 51°40' E 004°51'0 0.0
2016-Jul-26 10:33N 51°40' E 004°51'0 0.0
2016-Jul-25 08:04N 51°40' E 004°51'2 4.8
2016-Jul-25 07:33N 51°42' E 004°50'5 5.5
2016-Jul-25 06:33N 51°44' E 004°41'7 6.8
2016-Jul-25 05:33N 51°48' E 004°50'6 5.6
2016-Jul-25 04:33N 51°50' E 004°59'2 2.3
2016-Jul-25 03:33N 51°52' E 004°60'0 0.0
2016-Jul-25 02:33N 51°52' E 004°60'0 0.0
2016-Jul-25 01:33N 51°52' E 004°60'0 0.0
2016-Jul-25 00:33N 51°52' E 004°60'0 0.0
2016-Jul-24 23:32N 51°52' E 004°60'0 0.0
2016-Jul-24 22:30N 51°52' E 004°60'0 0.0
2016-Jul-24 21:32N 51°52' E 004°60'0 0.0
2016-Jul-24 20:33N 51°52' E 004°60'0 0.0
2016-Jul-24 19:29N 51°52' E 004°60'0 0.0
2016-Jul-24 18:22N 51°52' E 004°60'0 0.0
2016-Jul-24 17:23N 51°52' E 004°60'9 3.3
2016-Jul-24 14:33N 52°01' E 005°07'5 4.8
2016-Jul-24 13:33N 52°06' E 005°05'7 6.5
2016-Jul-24 12:33N 52°11' E 004°60'7 7.2
2016-Jul-24 11:33N 52°18' E 005°01'6 6.1
2016-Jul-24 10:33N 52°23' E 004°54'5 5.2
2016-Jul-24 09:33N 52°25' E 004°46'0 0.0
2016-Jul-24 08:33N 52°25' E 004°46'0 0.0
2016-Jul-24 07:33N 52°25' E 004°46'0 0.0
2016-Jul-24 06:33N 52°25' E 004°46'0 0.0
2016-Jul-24 05:33N 52°25' E 004°46'0 0.0
2016-Jul-24 04:33N 52°25' E 004°46'0 0.0
2016-Jul-24 03:34N 52°25' E 004°46'0 0.0
2016-Jul-24 02:33N 52°25' E 004°46'0 0.0
2016-Jul-24 01:33N 52°25' E 004°46'0 0.0
2016-Jul-24 00:33N 52°25' E 004°46'0 0.0
2016-Jul-23 23:34N 52°25' E 004°46'0 0.0
2016-Jul-23 22:33N 52°25' E 004°46'0 0.0
2016-Jul-23 21:33N 52°25' E 004°46'0 0.0
2016-Jul-23 20:33N 52°25' E 004°46'2 2.5
2016-Jul-23 19:34N 52°25' E 004°50'7 6.6
2016-Jul-23 18:33N 52°21' E 004°59'8 7.5
2016-Jul-23 17:33N 52°14' E 005°00'7 7.2
2016-Jul-23 16:33N 52°07' E 005°05'8 7.5
2016-Jul-23 15:33N 52°00' E 005°11'6 6.0
2016-Jul-23 14:33N 51°58' E 005°20'14 7.0
2016-Jul-23 12:32N 51°54' E 005°42'6 6.5
2016-Jul-23 11:33N 51°51' E 005°51'0 0.0
2016-Jul-23 10:31N 51°51' E 005°51'0 0.0
2016-Jul-23 09:33N 51°51' E 005°51'0 0.0
2016-Jul-23 08:33N 51°51' E 005°51'0 0.0
2016-Jul-23 07:33N 51°51' E 005°51'0 0.0
2016-Jul-23 06:33N 51°51' E 005°51'0 0.0
2016-Jul-23 04:26N 51°51' E 005°51'0 0.0
2016-Jul-23 03:33N 51°51' E 005°51'0 0.0
2016-Jul-23 02:33N 51°51' E 005°51'0 0.0
2016-Jul-23 01:33N 51°51' E 005°51'0 0.0
2016-Jul-22 23:05N 51°51' E 005°51'0 0.0
2016-Jul-22 22:33N 51°51' E 005°51'0 0.0
2016-Jul-22 21:31N 51°51' E 005°51'0 0.0
2016-Jul-22 20:32N 51°51' E 005°51'0 0.0
2016-Jul-22 19:30N 51°51' E 005°51'0 0.0
2016-Jul-22 18:31N 51°51' E 005°51'0 0.0
2016-Jul-22 17:31N 51°51' E 005°51'0 0.0
2016-Jul-22 16:33N 51°51' E 005°51'0 0.0
2016-Jul-22 15:33N 51°51' E 005°51'0 0.0
2016-Jul-22 14:33N 51°51' E 005°51'0 0.0
2016-Jul-22 13:33N 51°51' E 005°51'0 0.0
2016-Jul-22 12:33N 51°51' E 005°51'0 0.0
2016-Jul-22 11:33N 51°51' E 005°51'0 0.0
2016-Jul-22 10:33N 51°51' E 005°51'0 0.0
2016-Jul-22 09:29N 51°51' E 005°51'0 0.0
2016-Jul-22 08:33N 51°51' E 005°51'0 0.0
2016-Jul-22 07:33N 51°51' E 005°51'0 0.0
2016-Jul-22 04:33N 51°51' E 005°51'0 0.0
2016-Jul-22 03:33N 51°51' E 005°51'0 0.0
2016-Jul-22 02:33N 51°51' E 005°51'0 0.0
2016-Jul-22 01:25N 51°51' E 005°51'0 0.0
2016-Jul-22 00:32N 51°51' E 005°51'0 0.0
2016-Jul-21 23:33N 51°51' E 005°51'0 0.0
2016-Jul-21 21:16N 51°51' E 005°51'0 0.0
2016-Jul-21 20:29N 51°51' E 005°51'0 0.0
2016-Jul-21 19:30N 51°51' E 005°51'0 0.0
2016-Jul-21 18:33N 51°51' E 005°51'0 0.0
2016-Jul-21 17:31N 51°51' E 005°51'0 0.0
2016-Jul-21 16:31N 51°51' E 005°51'0 0.0
2016-Jul-21 15:31N 51°51' E 005°51'0 0.0
2016-Jul-21 14:29N 51°51' E 005°51'0 0.0
2016-Jul-21 13:27N 51°51' E 005°51'0 0.0
2016-Jul-21 12:28N 51°51' E 005°51'0 0.0
2016-Jul-21 10:33N 51°51' E 005°51'0 0.0
2016-Jul-21 09:33N 51°51' E 005°51'0 0.0
2016-Jul-21 08:33N 51°51' E 005°51'0 0.0
2016-Jul-21 07:33N 51°51' E 005°51'0 0.0
2016-Jul-21 06:32N 51°51' E 005°51'0 0.0
2016-Jul-21 05:30N 51°51' E 005°51'0 0.0
2016-Jul-21 04:29N 51°51' E 005°51'0 0.0
2016-Jul-21 03:33N 51°51' E 005°51'0 0.0
2016-Jul-21 02:33N 51°51' E 005°51'0 0.0
2016-Jul-21 01:33N 51°51' E 005°51'0 0.0
2016-Jul-21 00:32N 51°51' E 005°51'0 0.0
2016-Jul-20 23:22N 51°51' E 005°51'0 0.0
2016-Jul-20 22:33N 51°51' E 005°51'0 0.0
2016-Jul-20 21:33N 51°51' E 005°51'0 0.0
2016-Jul-20 20:33N 51°51' E 005°51'0 0.0
2016-Jul-20 19:33N 51°51' E 005°51'0 0.0
2016-Jul-20 18:33N 51°51' E 005°51'0 0.0
2016-Jul-20 17:30N 51°51' E 005°51'0 0.0
2016-Jul-20 16:33N 51°51' E 005°51'0 0.0
2016-Jul-20 07:19N 51°51' E 005°51'0 0.0
2016-Jul-20 06:33N 51°51' E 005°51'0 0.0
2016-Jul-20 05:28N 51°51' E 005°51'0 0.0
2016-Jul-20 04:28N 51°51' E 005°51'0 0.0
2016-Jul-20 03:31N 51°51' E 005°51'0 0.0
2016-Jul-20 02:26N 51°51' E 005°51'0 0.0
2016-Jul-20 01:31N 51°51' E 005°51'0 0.0
2016-Jul-20 00:33N 51°51' E 005°51'0 0.0
2016-Jul-19 18:25N 51°51' E 005°51'  

Dump ship's entire track history